Terminal Aerodrome Forecast
Issued by NWS

Home | Current Version | Previous Version | Text Only | Print | Product List | Glossary On
Versions: 1 2 3 4 5 6 7 8 9 10 11 12 13 14 15 16 17 18 19
602
FTUS46 KMTR 281515 AAC
TAFSTS
TAF AMD
KSTS 281515Z 2815/2912 VRB04KT 3SM BR OVC003
     FM281700 19007KT P6SM SCT150
     FM290300 19004KT P6SM SCT150
     FM290700 16003KT P6SM OVC007=

USA.gov is the U.S. government's official web portal to all federal, state and local government web resources and services.